Portada
METAR-TAF:

METAR-TAF

Aeropuertos :

Aeropuerto Internacional de Damasco

Damasco, Siria

latitud: 33-25N, longitud: 036-31E, altitud: 608 m

Observación

El informe se hizo hace 29 minutos, a las 03:00 UTC
Viento 6 kt del norte
Temperatura 11°C
Humedad 94%
Presión 1019 hPa
Visibilidad: 3000 m
neblina

METAR: OSDI 220300Z 01006KT 3000 BR 11/10 Q1019

Hora: 06:29 (03:29 UTC)

Pronóstico

Pronóstico válido del 22 a las 00 UTC al 23 a las 06 UTC
Viento 3 kt con dirección variable
Visibilidad: 3000 m
neblina
Temporalmente
del 22 a las 01 UTC al 22 a las 06 UTC
Visibilidad: 0200 m
Nubes dispersas a una altura de 700 ft
niebla
Evolucionando progresivamente
del 22 a las 06 UTC al 22 a las 08 UTC
Viento 10 kt del suroeste
Visibilidad: 8000 m
Escasas nubes a una altura de 3000 ft

TAF: OSDI 2200/2306 VRB03KT 3000 BR TEMPO 2201/2206 0200 FG SCT007 BECMG 2206/2208 22010KT 8000 FEW030

Observaciones y pronósticos meteorológicos de más de 4000 aeropuertos (mensajes METAR y TAF).

Los puntos amarillos y rojos representan las estaciones disponibles.

Ponga el ratón en el punto deseado para ver el nombre de la estación.

Haga clic para ver las observaciones y los pronósticos meteorológicos.

Para cambiar el mapa : haga clic en los botones verdes con una cruz de color negro para hacer un zoom, en el botón verde con un guión para alejar o en las flechas verdes para mapas adyacentes.


METAR-TAF: